Cash, South Dakota
Current Conditions -  °F | °C
As of 11:53 PM on Sunday 21 Dec 2014 (Local Time) from KHEI Reporting Station
Overcast Overcast  
Wind Chill: 28°   Ceiling: 3400
Heat Index: 37°   Visibility: 10mi
Dew Point: 34°   Wind: 16mph
Humidity: 89%   Direction: 280°W
Pressure: 29.43"   Gusts: 23mph
Location:  45.5161°N, 102.519°W
Report Text: KHEI 220653Z AUTO 28014G20KT 10SM FEW019 OVC034 03/01 A2943 RMK AO2 SLP978 T00280011 400501067
Loading
Personal Weather Stations






























Interactive Weather Map New forecast layout! Learn more

10-Day Weather Forecast

Advertisements
Track Severe Weather on mobile